sensor_id;sensor_type;location;lat;lon;timestamp;P1;durP1;ratioP1;P2;durP2;ratioP2
58015;SDS011;43809;52.110;20.964;2023-08-12T00:00:39;2.90;;;1.98;;
58015;SDS011;43809;52.110;20.964;2023-08-12T00:02:40;2.10;;;1.85;;
58015;SDS011;43809;52.110;20.964;2023-08-12T00:04:41;2.28;;;1.30;;
58015;SDS011;43809;52.110;20.964;2023-08-12T00:06:42;1.67;;;1.20;;
58015;SDS011;43809;52.110;20.964;2023-08-12T00:08:45;1.60;;;1.17;;
58015;SDS011;43809;52.110;20.964;2023-08-12T00:10:46;2.15;;;1.38;;
58015;SDS011;43809;52.110;20.964;2023-08-12T00:12:46;2.17;;;1.00;;
58015;SDS011;43809;52.110;20.964;2023-08-12T00:14:47;1.00;;;0.80;;
58015;SDS011;43809;52.110;20.964;2023-08-12T00:17:06;0.88;;;0.88;;
58015;SDS011;43809;52.110;20.964;2023-08-12T00:19:07;0.60;;;0.60;;
58015;SDS011;43809;52.110;20.964;2023-08-12T00:21:08;0.77;;;0.77;;
58015;SDS011;43809;52.110;20.964;2023-08-12T00:23:12;0.85;;;0.77;;
58015;SDS011;43809;52.110;20.964;2023-08-12T00:25:20;1.10;;;1.00;;
58015;SDS011;43809;52.110;20.964;2023-08-12T00:27:20;1.95;;;1.45;;
58015;SDS011;43809;52.110;20.964;2023-08-12T00:29:21;1.90;;;1.65;;
58015;SDS011;43809;52.110;20.964;2023-08-12T00:33:42;1.40;;;1.30;;
58015;SDS011;43809;52.110;20.964;2023-08-12T00:35:42;1.27;;;1.10;;
58015;SDS011;43809;52.110;20.964;2023-08-12T00:37:43;0.98;;;0.95;;
58015;SDS011;43809;52.110;20.964;2023-08-12T00:39:50;1.33;;;1.10;;
58015;SDS011;43809;52.110;20.964;2023-08-12T00:41:51;0.90;;;0.90;;
58015;SDS011;43809;52.110;20.964;2023-08-12T00:43:51;0.80;;;0.80;;
58015;SDS011;43809;52.110;20.964;2023-08-12T00:45:52;0.95;;;0.95;;
58015;SDS011;43809;52.110;20.964;2023-08-12T00:47:53;1.67;;;1.00;;
58015;SDS011;43809;52.110;20.964;2023-08-12T00:49:53;1.20;;;1.10;;
58015;SDS011;43809;52.110;20.964;2023-08-12T00:51:56;1.40;;;1.08;;
58015;SDS011;43809;52.110;20.964;2023-08-12T00:54:02;1.23;;;1.05;;
58015;SDS011;43809;52.110;20.964;2023-08-12T00:56:04;1.10;;;0.82;;
58015;SDS011;43809;52.110;20.964;2023-08-12T00:58:05;1.00;;;0.98;;
58015;SDS011;43809;52.110;20.964;2023-08-12T01:00:06;1.40;;;1.27;;
58015;SDS011;43809;52.110;20.964;2023-08-12T01:02:07;2.03;;;1.52;;
58015;SDS011;43809;52.110;20.964;2023-08-12T01:04:08;2.63;;;1.60;;
58015;SDS011;43809;52.110;20.964;2023-08-12T01:06:09;1.77;;;1.60;;
58015;SDS011;43809;52.110;20.964;2023-08-12T01:08:09;3.20;;;1.80;;
58015;SDS011;43809;52.110;20.964;2023-08-12T01:10:10;3.53;;;2.08;;
58015;SDS011;43809;52.110;20.964;2023-08-12T01:12:28;2.47;;;1.73;;
58015;SDS011;43809;52.110;20.964;2023-08-12T01:14:33;1.88;;;1.52;;
58015;SDS011;43809;52.110;20.964;2023-08-12T01:16:37;1.63;;;1.40;;
58015;SDS011;43809;52.110;20.964;2023-08-12T01:18:39;1.25;;;1.05;;
58015;SDS011;43809;52.110;20.964;2023-08-12T01:20:41;1.90;;;1.20;;
58015;SDS011;43809;52.110;20.964;2023-08-12T01:22:43;1.65;;;1.20;;
58015;SDS011;43809;52.110;20.964;2023-08-12T01:24:44;1.38;;;1.00;;
58015;SDS011;43809;52.110;20.964;2023-08-12T01:26:45;1.20;;;1.10;;
58015;SDS011;43809;52.110;20.964;2023-08-12T01:28:45;1.40;;;0.95;;
58015;SDS011;43809;52.110;20.964;2023-08-12T01:30:56;2.67;;;1.60;;
58015;SDS011;43809;52.110;20.964;2023-08-12T01:33:07;2.83;;;1.70;;
58015;SDS011;43809;52.110;20.964;2023-08-12T01:35:11;1.67;;;1.40;;
58015;SDS011;43809;52.110;20.964;2023-08-12T01:37:19;2.45;;;1.80;;
58015;SDS011;43809;52.110;20.964;2023-08-12T01:39:23;2.28;;;1.50;;
58015;SDS011;43809;52.110;20.964;2023-08-12T01:41:24;2.00;;;1.60;;
58015;SDS011;43809;52.110;20.964;2023-08-12T01:43:25;1.63;;;1.20;;
58015;SDS011;43809;52.110;20.964;2023-08-12T01:45:26;1.38;;;1.25;;
58015;SDS011;43809;52.110;20.964;2023-08-12T01:47:27;1.50;;;1.30;;
58015;SDS011;43809;52.110;20.964;2023-08-12T01:49:28;2.13;;;1.40;;
58015;SDS011;43809;52.110;20.964;2023-08-12T01:51:36;1.20;;;1.10;;
58015;SDS011;43809;52.110;20.964;2023-08-12T01:53:37;1.60;;;1.30;;
58015;SDS011;43809;52.110;20.964;2023-08-12T01:55:37;1.40;;;1.10;;
58015;SDS011;43809;52.110;20.964;2023-08-12T01:57:39;1.30;;;1.10;;
58015;SDS011;43809;52.110;20.964;2023-08-12T01:59:43;1.13;;;0.90;;
58015;SDS011;43809;52.110;20.964;2023-08-12T02:01:46;0.80;;;0.80;;
58015;SDS011;43809;52.110;20.964;2023-08-12T02:03:47;1.20;;;0.93;;
58015;SDS011;43809;52.110;20.964;2023-08-12T02:05:48;1.45;;;1.00;;
58015;SDS011;43809;52.110;20.964;2023-08-12T02:08:04;1.67;;;1.10;;
58015;SDS011;43809;52.110;20.964;2023-08-12T02:10:05;1.15;;;1.00;;
58015;SDS011;43809;52.110;20.964;2023-08-12T02:12:06;1.13;;;1.00;;
58015;SDS011;43809;52.110;20.964;2023-08-12T02:14:07;1.25;;;1.15;;
58015;SDS011;43809;52.110;20.964;2023-08-12T02:16:07;2.28;;;1.20;;
58015;SDS011;43809;52.110;20.964;2023-08-12T02:18:09;1.83;;;1.27;;
58015;SDS011;43809;52.110;20.964;2023-08-12T02:20:09;1.33;;;1.10;;
58015;SDS011;43809;52.110;20.964;2023-08-12T02:22:12;1.30;;;1.10;;
58015;SDS011;43809;52.110;20.964;2023-08-12T02:24:13;1.08;;;0.95;;
58015;SDS011;43809;52.110;20.964;2023-08-12T02:26:14;1.83;;;1.00;;
58015;SDS011;43809;52.110;20.964;2023-08-12T02:28:14;1.88;;;1.33;;
58015;SDS011;43809;52.110;20.964;2023-08-12T02:30:18;1.08;;;0.98;;
58015;SDS011;43809;52.110;20.964;2023-08-12T02:32:19;1.33;;;0.98;;
58015;SDS011;43809;52.110;20.964;2023-08-12T02:34:20;0.75;;;0.75;;
58015;SDS011;43809;52.110;20.964;2023-08-12T02:36:20;1.73;;;1.00;;
58015;SDS011;43809;52.110;20.964;2023-08-12T02:38:21;1.08;;;0.90;;
58015;SDS011;43809;52.110;20.964;2023-08-12T02:40:22;1.13;;;0.88;;
58015;SDS011;43809;52.110;20.964;2023-08-12T02:42:22;1.55;;;0.90;;
58015;SDS011;43809;52.110;20.964;2023-08-12T02:44:23;1.40;;;0.95;;
58015;SDS011;43809;52.110;20.964;2023-08-12T02:46:39;1.55;;;1.10;;
58015;SDS011;43809;52.110;20.964;2023-08-12T02:48:40;1.40;;;1.10;;
58015;SDS011;43809;52.110;20.964;2023-08-12T02:50:41;2.17;;;1.33;;
58015;SDS011;43809;52.110;20.964;2023-08-12T02:52:41;2.03;;;1.40;;
58015;SDS011;43809;52.110;20.964;2023-08-12T02:57:23;2.38;;;1.90;;
58015;SDS011;43809;52.110;20.964;2023-08-12T02:59:24;1.67;;;1.40;;
58015;SDS011;43809;52.110;20.964;2023-08-12T03:01:26;2.37;;;1.50;;
58015;SDS011;43809;52.110;20.964;2023-08-12T03:03:27;2.20;;;1.40;;
58015;SDS011;43809;52.110;20.964;2023-08-12T03:05:28;1.92;;;1.27;;
58015;SDS011;43809;52.110;20.964;2023-08-12T03:07:29;1.65;;;1.30;;
58015;SDS011;43809;52.110;20.964;2023-08-12T03:09:30;1.60;;;1.30;;
58015;SDS011;43809;52.110;20.964;2023-08-12T03:11:37;1.40;;;1.30;;
58015;SDS011;43809;52.110;20.964;2023-08-12T03:13:40;1.60;;;1.42;;
58015;SDS011;43809;52.110;20.964;2023-08-12T03:15:41;1.38;;;1.20;;
58015;SDS011;43809;52.110;20.964;2023-08-12T03:17:44;1.90;;;1.20;;
58015;SDS011;43809;52.110;20.964;2023-08-12T03:20:04;2.22;;;1.50;;
58015;SDS011;43809;52.110;20.964;2023-08-12T03:22:06;2.55;;;1.85;;
58015;SDS011;43809;52.110;20.964;2023-08-12T03:24:08;2.92;;;2.13;;
58015;SDS011;43809;52.110;20.964;2023-08-12T03:26:08;2.80;;;2.00;;
58015;SDS011;43809;52.110;20.964;2023-08-12T03:28:09;2.35;;;2.00;;
58015;SDS011;43809;52.110;20.964;2023-08-12T03:30:11;3.40;;;2.17;;
58015;SDS011;43809;52.110;20.964;2023-08-12T03:32:12;3.30;;;2.10;;
58015;SDS011;43809;52.110;20.964;2023-08-12T03:34:13;2.17;;;1.83;;
58015;SDS011;43809;52.110;20.964;2023-08-12T03:38:58;3.40;;;2.20;;
58015;SDS011;43809;52.110;20.964;2023-08-12T03:41:01;2.70;;;1.98;;
58015;SDS011;43809;52.110;20.964;2023-08-12T03:43:04;2.83;;;1.80;;
58015;SDS011;43809;52.110;20.964;2023-08-12T03:45:05;3.15;;;1.77;;
58015;SDS011;43809;52.110;20.964;2023-08-12T03:47:06;1.70;;;1.60;;
58015;SDS011;43809;52.110;20.964;2023-08-12T03:51:09;2.42;;;1.63;;
58015;SDS011;43809;52.110;20.964;2023-08-12T03:53:10;3.15;;;1.80;;
58015;SDS011;43809;52.110;20.964;2023-08-12T03:55:12;3.15;;;1.70;;
58015;SDS011;43809;52.110;20.964;2023-08-12T03:57:14;1.88;;;1.67;;
58015;SDS011;43809;52.110;20.964;2023-08-12T03:59:14;2.22;;;1.45;;
58015;SDS011;43809;52.110;20.964;2023-08-12T04:01:16;3.28;;;1.77;;
58015;SDS011;43809;52.110;20.964;2023-08-12T04:03:16;3.70;;;1.52;;
58015;SDS011;43809;52.110;20.964;2023-08-12T04:05:17;2.45;;;1.52;;
58015;SDS011;43809;52.110;20.964;2023-08-12T04:07:18;3.42;;;1.77;;
58015;SDS011;43809;52.110;20.964;2023-08-12T04:09:36;4.25;;;2.60;;
58015;SDS011;43809;52.110;20.964;2023-08-12T04:11:36;5.15;;;3.25;;
58015;SDS011;43809;52.110;20.964;2023-08-12T04:13:37;3.90;;;3.50;;
58015;SDS011;43809;52.110;20.964;2023-08-12T04:15:38;4.10;;;3.33;;
58015;SDS011;43809;52.110;20.964;2023-08-12T04:17:38;3.95;;;3.22;;
58015;SDS011;43809;52.110;20.964;2023-08-12T04:19:41;4.60;;;3.40;;
58015;SDS011;43809;52.110;20.964;2023-08-12T04:21:50;4.30;;;3.50;;
58015;SDS011;43809;52.110;20.964;2023-08-12T04:23:51;4.88;;;3.47;;
58015;SDS011;43809;52.110;20.964;2023-08-12T04:25:52;3.35;;;2.55;;
58015;SDS011;43809;52.110;20.964;2023-08-12T04:27:54;5.15;;;2.70;;
58015;SDS011;43809;52.110;20.964;2023-08-12T04:29:55;3.03;;;2.30;;
58015;SDS011;43809;52.110;20.964;2023-08-12T04:31:56;2.92;;;2.33;;
58015;SDS011;43809;52.110;20.964;2023-08-12T04:36:39;2.45;;;2.00;;
58015;SDS011;43809;52.110;20.964;2023-08-12T04:38:40;2.55;;;2.25;;
58015;SDS011;43809;52.110;20.964;2023-08-12T04:40:43;3.10;;;2.17;;
58015;SDS011;43809;52.110;20.964;2023-08-12T04:42:43;2.70;;;2.50;;
58015;SDS011;43809;52.110;20.964;2023-08-12T04:44:44;2.58;;;2.20;;
58015;SDS011;43809;52.110;20.964;2023-08-12T04:46:45;3.67;;;3.00;;
58015;SDS011;43809;52.110;20.964;2023-08-12T04:48:46;4.93;;;3.63;;
58015;SDS011;43809;52.110;20.964;2023-08-12T04:50:47;5.15;;;3.67;;
58015;SDS011;43809;52.110;20.964;2023-08-12T04:52:48;11.40;;;5.25;;
58015;SDS011;43809;52.110;20.964;2023-08-12T04:54:54;5.25;;;4.53;;
58015;SDS011;43809;52.110;20.964;2023-08-12T04:56:56;5.45;;;4.22;;
58015;SDS011;43809;52.110;20.964;2023-08-12T04:58:57;7.45;;;4.50;;
58015;SDS011;43809;52.110;20.964;2023-08-12T05:00:58;5.28;;;4.18;;
58015;SDS011;43809;52.110;20.964;2023-08-12T05:02:58;6.82;;;4.28;;
58015;SDS011;43809;52.110;20.964;2023-08-12T05:04:59;8.90;;;6.18;;
58015;SDS011;43809;52.110;20.964;2023-08-12T05:07:01;9.27;;;6.63;;
58015;SDS011;43809;52.110;20.964;2023-08-12T05:09:10;7.75;;;6.35;;
58015;SDS011;43809;52.110;20.964;2023-08-12T05:11:11;8.68;;;6.45;;
58015;SDS011;43809;52.110;20.964;2023-08-12T05:13:11;9.13;;;6.10;;
58015;SDS011;43809;52.110;20.964;2023-08-12T05:15:12;11.20;;;7.03;;
58015;SDS011;43809;52.110;20.964;2023-08-12T05:17:13;9.02;;;6.85;;
58015;SDS011;43809;52.110;20.964;2023-08-12T05:19:13;10.00;;;6.85;;
58015;SDS011;43809;52.110;20.964;2023-08-12T05:21:14;8.63;;;5.47;;
58015;SDS011;43809;52.110;20.964;2023-08-12T05:23:15;6.75;;;5.30;;
58015;SDS011;43809;52.110;20.964;2023-08-12T05:25:17;5.68;;;4.78;;
58015;SDS011;43809;52.110;20.964;2023-08-12T05:27:17;5.22;;;3.83;;
58015;SDS011;43809;52.110;20.964;2023-08-12T05:29:18;3.30;;;3.00;;
58015;SDS011;43809;52.110;20.964;2023-08-12T05:31:20;4.65;;;3.25;;
58015;SDS011;43809;52.110;20.964;2023-08-12T05:33:20;4.57;;;3.43;;
58015;SDS011;43809;52.110;20.964;2023-08-12T05:35:21;4.32;;;3.38;;
58015;SDS011;43809;52.110;20.964;2023-08-12T05:37:22;3.88;;;3.28;;
58015;SDS011;43809;52.110;20.964;2023-08-12T05:39:23;3.30;;;2.38;;
58015;SDS011;43809;52.110;20.964;2023-08-12T05:41:23;4.72;;;3.38;;
58015;SDS011;43809;52.110;20.964;2023-08-12T05:43:24;4.68;;;4.00;;
58015;SDS011;43809;52.110;20.964;2023-08-12T05:45:24;4.13;;;3.22;;
58015;SDS011;43809;52.110;20.964;2023-08-12T05:47:25;4.22;;;3.60;;
58015;SDS011;43809;52.110;20.964;2023-08-12T05:49:26;5.45;;;3.72;;
58015;SDS011;43809;52.110;20.964;2023-08-12T05:51:26;4.15;;;3.30;;
58015;SDS011;43809;52.110;20.964;2023-08-12T05:53:27;4.35;;;3.30;;
58015;SDS011;43809;52.110;20.964;2023-08-12T05:55:28;10.00;;;4.88;;
58015;SDS011;43809;52.110;20.964;2023-08-12T05:57:28;4.68;;;3.13;;
58015;SDS011;43809;52.110;20.964;2023-08-12T05:59:29;5.30;;;3.17;;
58015;SDS011;43809;52.110;20.964;2023-08-12T06:03:44;8.45;;;3.95;;
58015;SDS011;43809;52.110;20.964;2023-08-12T06:05:45;8.15;;;4.43;;
58015;SDS011;43809;52.110;20.964;2023-08-12T06:07:46;4.32;;;2.80;;
58015;SDS011;43809;52.110;20.964;2023-08-12T06:09:47;5.35;;;2.88;;
58015;SDS011;43809;52.110;20.964;2023-08-12T06:11:48;3.65;;;2.40;;
58015;SDS011;43809;52.110;20.964;2023-08-12T06:13:49;3.78;;;2.53;;
58015;SDS011;43809;52.110;20.964;2023-08-12T06:15:49;3.03;;;2.08;;
58015;SDS011;43809;52.110;20.964;2023-08-12T06:17:50;3.92;;;2.70;;
58015;SDS011;43809;52.110;20.964;2023-08-12T06:19:53;4.10;;;2.90;;
58015;SDS011;43809;52.110;20.964;2023-08-12T06:21:53;3.72;;;2.33;;
58015;SDS011;43809;52.110;20.964;2023-08-12T06:23:55;3.38;;;2.05;;
58015;SDS011;43809;52.110;20.964;2023-08-12T06:25:56;3.15;;;2.15;;
58015;SDS011;43809;52.110;20.964;2023-08-12T06:27:57;2.47;;;1.80;;
58015;SDS011;43809;52.110;20.964;2023-08-12T06:29:59;2.38;;;1.90;;
58015;SDS011;43809;52.110;20.964;2023-08-12T06:31:59;5.40;;;2.05;;
58015;SDS011;43809;52.110;20.964;2023-08-12T06:34:00;2.97;;;2.08;;
58015;SDS011;43809;52.110;20.964;2023-08-12T06:36:01;1.90;;;1.63;;
58015;SDS011;43809;52.110;20.964;2023-08-12T06:38:02;2.10;;;1.90;;
58015;SDS011;43809;52.110;20.964;2023-08-12T06:40:03;3.43;;;2.20;;
58015;SDS011;43809;52.110;20.964;2023-08-12T06:42:04;2.42;;;1.73;;
58015;SDS011;43809;52.110;20.964;2023-08-12T06:44:17;4.67;;;2.33;;
58015;SDS011;43809;52.110;20.964;2023-08-12T06:46:17;3.50;;;2.20;;
58015;SDS011;43809;52.110;20.964;2023-08-12T06:48:21;2.40;;;2.03;;
58015;SDS011;43809;52.110;20.964;2023-08-12T06:50:22;1.50;;;1.40;;
58015;SDS011;43809;52.110;20.964;2023-08-12T06:52:22;1.43;;;1.20;;
58015;SDS011;43809;52.110;20.964;2023-08-12T06:54:23;2.90;;;1.97;;
58015;SDS011;43809;52.110;20.964;2023-08-12T06:56:24;4.43;;;2.08;;
58015;SDS011;43809;52.110;20.964;2023-08-12T06:58:25;1.93;;;1.83;;
58015;SDS011;43809;52.110;20.964;2023-08-12T07:00:26;3.40;;;1.67;;
58015;SDS011;43809;52.110;20.964;2023-08-12T07:02:27;2.43;;;1.57;;
58015;SDS011;43809;52.110;20.964;2023-08-12T07:04:27;1.93;;;1.20;;
58015;SDS011;43809;52.110;20.964;2023-08-12T07:06:28;5.43;;;1.73;;
58015;SDS011;43809;52.110;20.964;2023-08-12T07:08:29;2.70;;;1.80;;
58015;SDS011;43809;52.110;20.964;2023-08-12T07:10:29;3.73;;;2.20;;
58015;SDS011;43809;52.110;20.964;2023-08-12T07:12:30;2.70;;;1.70;;
58015;SDS011;43809;52.110;20.964;2023-08-12T07:14:31;2.93;;;2.00;;
58015;SDS011;43809;52.110;20.964;2023-08-12T07:18:46;2.20;;;1.90;;
58015;SDS011;43809;52.110;20.964;2023-08-12T07:20:47;3.80;;;1.87;;
58015;SDS011;43809;52.110;20.964;2023-08-12T07:22:48;3.40;;;2.00;;
58015;SDS011;43809;52.110;20.964;2023-08-12T07:24:48;2.10;;;1.50;;
58015;SDS011;43809;52.110;20.964;2023-08-12T07:26:57;1.90;;;1.17;;
58015;SDS011;43809;52.110;20.964;2023-08-12T07:28:58;1.60;;;1.23;;
58015;SDS011;43809;52.110;20.964;2023-08-12T07:31:00;1.20;;;1.10;;
58015;SDS011;43809;52.110;20.964;2023-08-12T07:33:01;1.90;;;1.20;;
58015;SDS011;43809;52.110;20.964;2023-08-12T07:35:02;1.50;;;1.10;;
58015;SDS011;43809;52.110;20.964;2023-08-12T07:37:03;3.22;;;1.33;;
58015;SDS011;43809;52.110;20.964;2023-08-12T07:39:03;1.37;;;1.10;;
58015;SDS011;43809;52.110;20.964;2023-08-12T07:41:04;4.55;;;1.73;;
58015;SDS011;43809;52.110;20.964;2023-08-12T07:43:05;5.15;;;1.75;;
58015;SDS011;43809;52.110;20.964;2023-08-12T07:45:06;1.50;;;1.15;;
58015;SDS011;43809;52.110;20.964;2023-08-12T07:47:07;2.97;;;1.53;;
58015;SDS011;43809;52.110;20.964;2023-08-12T07:49:08;1.88;;;0.98;;
58015;SDS011;43809;52.110;20.964;2023-08-12T07:51:09;1.90;;;1.17;;
58015;SDS011;43809;52.110;20.964;2023-08-12T07:53:10;1.98;;;1.48;;
58015;SDS011;43809;52.110;20.964;2023-08-12T07:55:10;1.70;;;1.30;;
58015;SDS011;43809;52.110;20.964;2023-08-12T07:59:24;3.10;;;1.23;;
58015;SDS011;43809;52.110;20.964;2023-08-12T08:01:43;4.03;;;1.30;;
58015;SDS011;43809;52.110;20.964;2023-08-12T08:03:44;2.15;;;1.40;;
58015;SDS011;43809;52.110;20.964;2023-08-12T08:05:44;1.88;;;1.35;;
58015;SDS011;43809;52.110;20.964;2023-08-12T08:07:47;2.70;;;1.20;;
58015;SDS011;43809;52.110;20.964;2023-08-12T08:09:48;4.20;;;1.20;;
58015;SDS011;43809;52.110;20.964;2023-08-12T08:11:49;1.23;;;1.10;;
58015;SDS011;43809;52.110;20.964;2023-08-12T08:16:15;2.33;;;1.20;;
58015;SDS011;43809;52.110;20.964;2023-08-12T08:18:16;2.60;;;1.60;;
58015;SDS011;43809;52.110;20.964;2023-08-12T08:20:16;1.88;;;0.95;;
58015;SDS011;43809;52.110;20.964;2023-08-12T08:22:17;2.08;;;1.42;;
58015;SDS011;43809;52.110;20.964;2023-08-12T08:24:18;1.60;;;1.40;;
58015;SDS011;43809;52.110;20.964;2023-08-12T08:26:34;2.75;;;1.33;;
58015;SDS011;43809;52.110;20.964;2023-08-12T08:28:35;1.30;;;1.00;;
58015;SDS011;43809;52.110;20.964;2023-08-12T08:30:36;4.15;;;1.52;;
58015;SDS011;43809;52.110;20.964;2023-08-12T08:32:36;2.00;;;1.08;;
58015;SDS011;43809;52.110;20.964;2023-08-12T08:34:37;1.27;;;0.98;;
58015;SDS011;43809;52.110;20.964;2023-08-12T08:36:38;1.40;;;1.00;;
58015;SDS011;43809;52.110;20.964;2023-08-12T08:38:39;1.77;;;1.10;;
58015;SDS011;43809;52.110;20.964;2023-08-12T08:40:39;1.52;;;1.02;;
58015;SDS011;43809;52.110;20.964;2023-08-12T08:42:41;2.50;;;1.48;;
58015;SDS011;43809;52.110;20.964;2023-08-12T08:44:59;1.63;;;1.00;;
58015;SDS011;43809;52.110;20.964;2023-08-12T08:47:01;1.52;;;1.10;;
58015;SDS011;43809;52.110;20.964;2023-08-12T08:49:02;1.95;;;1.10;;
58015;SDS011;43809;52.110;20.964;2023-08-12T08:51:05;3.10;;;1.30;;
58015;SDS011;43809;52.110;20.964;2023-08-12T08:53:06;2.38;;;1.40;;
58015;SDS011;43809;52.110;20.964;2023-08-12T08:55:07;4.70;;;1.80;;
58015;SDS011;43809;52.110;20.964;2023-08-12T08:57:07;3.33;;;1.52;;
58015;SDS011;43809;52.110;20.964;2023-08-12T08:59:08;2.25;;;1.40;;
58015;SDS011;43809;52.110;20.964;2023-08-12T09:01:10;2.30;;;1.13;;
58015;SDS011;43809;52.110;20.964;2023-08-12T09:03:11;1.98;;;1.10;;
58015;SDS011;43809;52.110;20.964;2023-08-12T09:05:14;1.50;;;1.00;;
58015;SDS011;43809;52.110;20.964;2023-08-12T09:07:15;2.58;;;1.10;;
58015;SDS011;43809;52.110;20.964;2023-08-12T09:09:16;1.85;;;1.00;;
58015;SDS011;43809;52.110;20.964;2023-08-12T09:11:20;2.30;;;1.20;;
58015;SDS011;43809;52.110;20.964;2023-08-12T09:13:21;2.40;;;1.20;;
58015;SDS011;43809;52.110;20.964;2023-08-12T09:15:21;1.60;;;1.00;;
58015;SDS011;43809;52.110;20.964;2023-08-12T09:17:22;2.47;;;1.00;;
58015;SDS011;43809;52.110;20.964;2023-08-12T09:19:23;1.80;;;1.27;;
58015;SDS011;43809;52.110;20.964;2023-08-12T09:23:28;2.05;;;1.05;;
58015;SDS011;43809;52.110;20.964;2023-08-12T09:25:34;2.85;;;1.45;;
58015;SDS011;43809;52.110;20.964;2023-08-12T09:27:43;2.35;;;1.02;;
58015;SDS011;43809;52.110;20.964;2023-08-12T09:29:44;1.13;;;0.98;;
58015;SDS011;43809;52.110;20.964;2023-08-12T09:31:44;2.08;;;1.13;;
58015;SDS011;43809;52.110;20.964;2023-08-12T09:36:23;2.20;;;1.45;;
58015;SDS011;43809;52.110;20.964;2023-08-12T09:38:24;4.38;;;1.90;;
58015;SDS011;43809;52.110;20.964;2023-08-12T09:40:25;5.72;;;1.73;;
58015;SDS011;43809;52.110;20.964;2023-08-12T09:42:27;3.63;;;1.63;;
58015;SDS011;43809;52.110;20.964;2023-08-12T09:44:28;2.40;;;1.52;;
58015;SDS011;43809;52.110;20.964;2023-08-12T09:48:50;2.30;;;1.42;;
58015;SDS011;43809;52.110;20.964;2023-08-12T09:52:53;1.20;;;1.10;;
58015;SDS011;43809;52.110;20.964;2023-08-12T09:54:54;6.95;;;2.00;;
58015;SDS011;43809;52.110;20.964;2023-08-12T09:56:57;2.75;;;1.40;;
58015;SDS011;43809;52.110;20.964;2023-08-12T09:58:59;13.50;;;3.03;;
58015;SDS011;43809;52.110;20.964;2023-08-12T10:01:00;4.13;;;1.50;;
58015;SDS011;43809;52.110;20.964;2023-08-12T10:03:02;3.47;;;1.45;;
58015;SDS011;43809;52.110;20.964;2023-08-12T10:05:03;2.92;;;1.70;;
58015;SDS011;43809;52.110;20.964;2023-08-12T10:07:04;2.17;;;1.42;;
58015;SDS011;43809;52.110;20.964;2023-08-12T10:09:05;3.47;;;1.55;;
58015;SDS011;43809;52.110;20.964;2023-08-12T10:11:08;2.53;;;1.30;;
58015;SDS011;43809;52.110;20.964;2023-08-12T10:15:10;2.38;;;1.50;;
58015;SDS011;43809;52.110;20.964;2023-08-12T10:17:12;3.43;;;1.50;;
58015;SDS011;43809;52.110;20.964;2023-08-12T10:19:13;1.58;;;1.20;;
58015;SDS011;43809;52.110;20.964;2023-08-12T10:21:17;1.60;;;1.10;;
58015;SDS011;43809;52.110;20.964;2023-08-12T10:23:18;2.08;;;1.17;;
58015;SDS011;43809;52.110;20.964;2023-08-12T10:25:19;1.17;;;1.00;;
58015;SDS011;43809;52.110;20.964;2023-08-12T10:27:24;1.65;;;1.15;;
58015;SDS011;43809;52.110;20.964;2023-08-12T10:29:29;12.82;;;2.63;;
58015;SDS011;43809;52.110;20.964;2023-08-12T10:31:30;2.50;;;1.40;;
58015;SDS011;43809;52.110;20.964;2023-08-12T10:33:35;5.65;;;1.83;;
58015;SDS011;43809;52.110;20.964;2023-08-12T10:35:48;3.17;;;1.63;;
58015;SDS011;43809;52.110;20.964;2023-08-12T10:37:49;16.05;;;2.72;;
58015;SDS011;43809;52.110;20.964;2023-08-12T10:42:04;4.10;;;1.80;;
58015;SDS011;43809;52.110;20.964;2023-08-12T10:44:05;5.28;;;2.00;;
58015;SDS011;43809;52.110;20.964;2023-08-12T10:46:06;8.73;;;2.05;;
58015;SDS011;43809;52.110;20.964;2023-08-12T10:48:22;2.80;;;1.83;;
58015;SDS011;43809;52.110;20.964;2023-08-12T10:50:24;4.47;;;1.60;;
58015;SDS011;43809;52.110;20.964;2023-08-12T10:52:29;2.20;;;1.40;;
58015;SDS011;43809;52.110;20.964;2023-08-12T10:54:30;2.63;;;1.30;;
58015;SDS011;43809;52.110;20.964;2023-08-12T10:58:55;2.15;;;1.35;;
58015;SDS011;43809;52.110;20.964;2023-08-12T11:00:56;1.98;;;1.30;;
58015;SDS011;43809;52.110;20.964;2023-08-12T11:02:57;1.55;;;1.17;;
58015;SDS011;43809;52.110;20.964;2023-08-12T11:05:10;2.58;;;1.48;;
58015;SDS011;43809;52.110;20.964;2023-08-12T11:07:18;3.05;;;1.50;;
58015;SDS011;43809;52.110;20.964;2023-08-12T11:09:19;2.10;;;1.20;;
58015;SDS011;43809;52.110;20.964;2023-08-12T11:11:21;2.83;;;1.05;;
58015;SDS011;43809;52.110;20.964;2023-08-12T11:13:22;1.55;;;1.10;;
58015;SDS011;43809;52.110;20.964;2023-08-12T11:15:32;1.60;;;1.17;;
58015;SDS011;43809;52.110;20.964;2023-08-12T11:17:34;2.80;;;1.30;;
58015;SDS011;43809;52.110;20.964;2023-08-12T11:21:36;2.08;;;1.33;;
58015;SDS011;43809;52.110;20.964;2023-08-12T11:23:37;2.20;;;1.40;;
58015;SDS011;43809;52.110;20.964;2023-08-12T11:25:39;1.88;;;1.30;;
58015;SDS011;43809;52.110;20.964;2023-08-12T11:27:46;2.30;;;1.30;;
58015;SDS011;43809;52.110;20.964;2023-08-12T11:29:48;1.33;;;1.02;;
58015;SDS011;43809;52.110;20.964;2023-08-12T11:31:49;1.30;;;1.15;;
58015;SDS011;43809;52.110;20.964;2023-08-12T11:33:50;3.00;;;1.33;;
58015;SDS011;43809;52.110;20.964;2023-08-12T11:35:53;1.92;;;1.17;;
58015;SDS011;43809;52.110;20.964;2023-08-12T11:37:54;2.22;;;1.25;;
58015;SDS011;43809;52.110;20.964;2023-08-12T11:39:58;1.55;;;1.20;;
58015;SDS011;43809;52.110;20.964;2023-08-12T11:41:59;0.95;;;0.85;;
58015;SDS011;43809;52.110;20.964;2023-08-12T11:43:59;1.70;;;1.40;;
58015;SDS011;43809;52.110;20.964;2023-08-12T11:46:00;2.95;;;1.33;;
58015;SDS011;43809;52.110;20.964;2023-08-12T11:48:01;1.95;;;1.30;;
58015;SDS011;43809;52.110;20.964;2023-08-12T11:50:05;2.05;;;1.40;;
58015;SDS011;43809;52.110;20.964;2023-08-12T11:52:08;2.75;;;1.30;;
58015;SDS011;43809;52.110;20.964;2023-08-12T11:54:08;2.72;;;1.35;;
58015;SDS011;43809;52.110;20.964;2023-08-12T11:56:09;2.00;;;1.10;;
58015;SDS011;43809;52.110;20.964;2023-08-12T11:58:14;1.55;;;0.95;;
58015;SDS011;43809;52.110;20.964;2023-08-12T12:00:19;2.60;;;1.30;;
58015;SDS011;43809;52.110;20.964;2023-08-12T12:02:20;2.03;;;1.20;;
58015;SDS011;43809;52.110;20.964;2023-08-12T12:04:30;1.80;;;1.10;;
58015;SDS011;43809;52.110;20.964;2023-08-12T12:06:31;2.63;;;1.50;;
58015;SDS011;43809;52.110;20.964;2023-08-12T12:08:32;2.72;;;1.30;;
58015;SDS011;43809;52.110;20.964;2023-08-12T12:10:33;2.33;;;1.48;;
58015;SDS011;43809;52.110;20.964;2023-08-12T12:12:34;1.60;;;1.00;;
58015;SDS011;43809;52.110;20.964;2023-08-12T12:14:38;1.45;;;0.90;;
58015;SDS011;43809;52.110;20.964;2023-08-12T12:16:40;1.70;;;1.50;;
58015;SDS011;43809;52.110;20.964;2023-08-12T12:18:47;1.48;;;1.20;;
58015;SDS011;43809;52.110;20.964;2023-08-12T12:20:54;3.15;;;1.67;;
58015;SDS011;43809;52.110;20.964;2023-08-12T12:22:56;1.40;;;1.27;;
58015;SDS011;43809;52.110;20.964;2023-08-12T12:25:00;3.50;;;1.60;;
58015;SDS011;43809;52.110;20.964;2023-08-12T12:27:15;1.83;;;1.20;;
58015;SDS011;43809;52.110;20.964;2023-08-12T12:29:16;1.77;;;1.10;;
58015;SDS011;43809;52.110;20.964;2023-08-12T12:31:16;1.63;;;1.10;;
58015;SDS011;43809;52.110;20.964;2023-08-12T12:33:17;1.15;;;1.05;;
58015;SDS011;43809;52.110;20.964;2023-08-12T12:35:18;1.13;;;1.00;;
58015;SDS011;43809;52.110;20.964;2023-08-12T12:37:18;1.48;;;1.02;;
58015;SDS011;43809;52.110;20.964;2023-08-12T12:39:19;1.20;;;1.00;;
58015;SDS011;43809;52.110;20.964;2023-08-12T12:41:20;1.92;;;1.33;;
58015;SDS011;43809;52.110;20.964;2023-08-12T12:43:20;2.30;;;1.38;;